Time;durP1;ratioP1;P1;durP2;ratioP2;P2;SDS_P1;SDS_P2;PMS_P1;PMS_P2;Temp;Humidity;BMP_temperature;BMP_pressure;BME280_temperature;BME280_humidity;BME280_pressure;Samples;Min_cycle;Max_cycle;Signal;HPM_P1;HPM_P2
2021/11/04 00:02:16;;;;;;;0.50;0.40;;;6.90;99.90;;;;;;5054244;28;20198;-77
2021/11/04 00:04:43;;;;;;;3.03;2.83;;;6.90;99.90;;;;;;5054513;28;20568;-76
2021/11/04 00:07:12;;;;;;;1.48;1.38;;;6.90;99.90;;;;;;5053977;28;20237;-76
2021/11/04 00:09:39;;;;;;;1.67;1.58;;;6.90;99.90;;;;;;5060382;28;20584;-76
2021/11/04 00:12:08;;;;;;;0.50;0.40;;;6.90;99.90;;;;;;5061637;28;21070;-75
2021/11/04 00:14:35;;;;;;;4.10;2.15;;;6.90;99.90;;;;;;5053595;28;20218;-77
2021/11/04 00:17:02;;;;;;;2.17;2.08;;;6.90;99.90;;;;;;5053722;28;20215;-76
2021/11/04 00:19:29;;;;;;;1.88;1.50;;;6.90;99.90;;;;;;5053396;28;20195;-76
2021/11/04 00:21:56;;;;;;;4.55;1.92;;;7.00;99.90;;;;;;5053100;28;20195;-76
2021/11/04 00:24:23;;;;;;;0.88;0.88;;;7.00;99.90;;;;;;5052457;28;20211;-75
2021/11/04 00:26:50;;;;;;;0.50;0.40;;;7.10;99.90;;;;;;5053659;28;20222;-76
2021/11/04 00:29:18;;;;;;;0.50;0.40;;;7.10;99.90;;;;;;5053852;28;20542;-76
2021/11/04 00:31:45;;;;;;;0.50;0.40;;;7.10;99.90;;;;;;5053109;28;20223;-76
2021/11/04 00:34:12;;;;;;;0.50;0.40;;;7.10;99.90;;;;;;5053467;28;20202;-77
2021/11/04 00:36:39;;;;;;;0.50;0.50;;;7.20;99.90;;;;;;5053750;28;20226;-75
2021/11/04 00:39:06;;;;;;;0.90;0.90;;;7.20;99.90;;;;;;5052932;28;20195;-77
2021/11/04 00:41:33;;;;;;;0.65;0.65;;;7.20;99.90;;;;;;5053071;28;20192;-76
2021/11/04 00:44:02;;;;;;;0.50;0.40;;;7.20;99.90;;;;;;5053424;28;20248;-76
2021/11/04 00:46:30;;;;;;;2.45;2.35;;;7.20;99.90;;;;;;5053563;28;20225;-76
2021/11/04 00:48:57;;;;;;;0.93;0.90;;;7.20;99.90;;;;;;5053521;28;20221;-77
2021/11/04 00:51:24;;;;;;;0.88;0.88;;;7.20;99.90;;;;;;5052639;28;20223;-74
2021/11/04 00:53:52;;;;;;;1.20;1.15;;;7.20;99.90;;;;;;5053553;28;20206;-76
2021/11/04 00:56:19;;;;;;;0.50;0.40;;;7.20;99.90;;;;;;5052328;28;20227;-74
2021/11/04 00:58:49;;;;;;;0.50;0.40;;;7.20;99.90;;;;;;5062787;28;20206;-76
2021/11/04 01:01:16;;;;;;;1.40;0.93;;;7.20;99.90;;;;;;5059954;28;20199;-76
2021/11/04 01:03:44;;;;;;;1.52;1.42;;;7.20;99.90;;;;;;5052876;28;20192;-77
2021/11/04 01:06:11;;;;;;;0.52;0.40;;;7.20;99.90;;;;;;5052867;28;20219;-76
2021/11/04 01:08:38;;;;;;;0.50;0.40;;;7.20;99.90;;;;;;5052870;28;20200;-76
2021/11/04 01:11:05;;;;;;;0.50;0.40;;;7.20;99.90;;;;;;5051782;28;20218;-76
2021/11/04 01:13:32;;;;;;;0.50;0.40;;;7.20;99.90;;;;;;5052753;28;20199;-77
2021/11/04 01:15:59;;;;;;;0.50;0.50;;;7.10;99.90;;;;;;5052367;28;20230;-76
2021/11/04 01:18:26;;;;;;;0.50;0.40;;;7.10;99.90;;;;;;5052380;28;20196;-76
2021/11/04 01:20:54;;;;;;;0.52;0.45;;;7.10;99.90;;;;;;5052343;28;20191;-76
2021/11/04 01:23:21;;;;;;;0.50;0.40;;;7.10;99.90;;;;;;5052797;28;20197;-76
2021/11/04 01:25:48;;;;;;;0.50;0.40;;;7.10;99.90;;;;;;5052542;28;20223;-76
2021/11/04 01:28:15;;;;;;;0.50;0.40;;;7.10;99.90;;;;;;5052815;28;20191;-76
2021/11/04 01:30:43;;;;;;;2.17;2.08;;;7.20;99.90;;;;;;5051827;28;20253;-75
2021/11/04 01:33:10;;;;;;;0.50;0.40;;;7.20;99.90;;;;;;5052049;28;20665;-76
2021/11/04 01:35:37;;;;;;;0.65;0.65;;;7.20;99.90;;;;;;5052654;28;20230;-76
2021/11/04 01:38:06;;;;;;;0.50;0.40;;;7.10;99.90;;;;;;5051978;28;20693;-77
2021/11/04 01:40:34;;;;;;;0.70;0.70;;;7.10;99.90;;;;;;5050888;28;20673;-76
2021/11/04 01:43:01;;;;;;;3.63;3.42;;;7.20;99.90;;;;;;5056116;28;20203;-75
2021/11/04 01:45:28;;;;;;;0.60;0.57;;;7.20;99.90;;;;;;5051906;28;20192;-76
2021/11/04 01:47:55;;;;;;;0.50;0.40;;;7.10;99.90;;;;;;5051775;28;20214;-77
2021/11/04 01:50:24;;;;;;;0.50;0.40;;;7.10;99.90;;;;;;5051967;28;20800;-76
2021/11/04 01:52:51;;;;;;;0.50;0.40;;;7.10;99.90;;;;;;5052270;28;20224;-77
2021/11/04 01:55:21;;;;;;;0.50;0.40;;;7.20;99.90;;;;;;5051743;28;20201;-74
2021/11/04 01:57:49;;;;;;;0.50;0.40;;;7.10;99.90;;;;;;5054067;28;20200;-76
2021/11/04 02:00:18;;;;;;;0.50;0.40;;;7.20;99.90;;;;;;5071982;28;20200;-76
2021/11/04 02:02:47;;;;;;;0.50;0.40;;;7.10;99.90;;;;;;5072180;28;20208;-76
2021/11/04 02:05:19;;;;;;;0.50;0.40;;;7.10;99.90;;;;;;5071643;28;20201;-75
2021/11/04 02:07:51;;;;;;;1.95;1.85;;;7.10;99.90;;;;;;5071541;28;20181;-77
2021/11/04 02:10:26;;;;;;;2.40;2.20;;;7.10;99.90;;;;;;5071416;28;20218;-76
2021/11/04 02:12:58;;;;;;;0.50;0.40;;;7.00;99.90;;;;;;5071178;28;20205;-76
2021/11/04 02:15:27;;;;;;;0.50;0.40;;;7.00;99.90;;;;;;5071568;28;20633;-76
2021/11/04 02:17:56;;;;;;;0.50;0.40;;;7.00;99.90;;;;;;5071451;28;20194;-76
2021/11/04 02:20:31;;;;;;;2.45;2.17;;;7.00;99.90;;;;;;5070625;28;20573;-76
2021/11/04 02:23:02;;;;;;;3.65;3.35;;;7.00;99.90;;;;;;5071292;28;20263;-76
2021/11/04 02:25:33;;;;;;;0.90;0.90;;;7.00;99.90;;;;;;5071439;28;20203;-76
2021/11/04 02:28:02;;;;;;;0.50;0.40;;;6.90;99.90;;;;;;5071747;28;20182;-76
2021/11/04 02:30:30;;;;;;;2.53;2.35;;;6.90;99.90;;;;;;5071139;28;20210;-76
2021/11/04 02:32:58;;;;;;;0.50;0.40;;;6.80;99.90;;;;;;5071228;28;20218;-76
2021/11/04 02:35:25;;;;;;;0.50;0.40;;;6.80;99.90;;;;;;5071312;28;20195;-76
2021/11/04 02:37:54;;;;;;;0.50;0.40;;;6.70;99.90;;;;;;5071578;28;20198;-76
2021/11/04 02:40:22;;;;;;;0.50;0.50;;;6.70;99.90;;;;;;5056818;28;20197;-76
2021/11/04 02:42:51;;;;;;;2.45;2.25;;;6.80;99.90;;;;;;5050499;28;20198;-76
2021/11/04 02:45:21;;;;;;;0.98;0.98;;;6.80;99.90;;;;;;5051426;28;20208;-74
2021/11/04 02:47:48;;;;;;;0.50;0.40;;;6.70;99.90;;;;;;5050560;28;20222;-76
2021/11/04 02:50:17;;;;;;;0.70;0.70;;;6.70;99.90;;;;;;5051181;28;20202;-76
2021/11/04 02:52:44;;;;;;;0.50;0.40;;;6.70;99.90;;;;;;5051189;28;20225;-76
2021/11/04 02:55:11;;;;;;;2.15;2.05;;;6.70;99.90;;;;;;5051082;28;20206;-76
2021/11/04 02:57:45;;;;;;;0.65;0.65;;;6.70;99.90;;;;;;5051435;28;20596;-77
2021/11/04 03:00:15;;;;;;;2.25;2.05;;;6.80;99.90;;;;;;5070939;28;20194;-75
2021/11/04 03:02:42;;;;;;;22.27;2.35;;;6.70;99.90;;;;;;5070801;28;20179;-76
2021/11/04 03:05:09;;;;;;;0.50;0.50;;;6.70;99.90;;;;;;5070337;28;20579;-76
2021/11/04 03:07:36;;;;;;;0.50;0.40;;;6.70;99.90;;;;;;5071074;28;20598;-76
2021/11/04 03:10:03;;;;;;;0.50;0.40;;;6.60;99.90;;;;;;5070631;28;20201;-74
2021/11/04 03:12:30;;;;;;;0.50;0.40;;;6.70;99.90;;;;;;5071267;28;20301;-76
2021/11/04 03:14:58;;;;;;;0.90;0.90;;;6.70;99.90;;;;;;5071381;28;20201;-76
2021/11/04 03:17:27;;;;;;;0.50;0.40;;;6.80;99.90;;;;;;5070880;28;20704;-76
2021/11/04 03:19:55;;;;;;;0.50;0.40;;;6.70;99.90;;;;;;5070835;28;20198;-76
2021/11/04 03:22:22;;;;;;;4.57;2.15;;;6.70;99.90;;;;;;5065638;28;20198;-76
2021/11/04 03:24:49;;;;;;;0.50;0.40;;;6.80;99.90;;;;;;5050038;28;20214;-76
2021/11/04 03:27:17;;;;;;;0.90;0.90;;;6.80;99.90;;;;;;5050686;28;20213;-74
2021/11/04 03:29:44;;;;;;;0.50;0.40;;;6.80;99.90;;;;;;5050407;28;20206;-76
2021/11/04 03:32:15;;;;;;;0.50;0.40;;;6.90;99.90;;;;;;5050388;28;20212;-74
2021/11/04 03:34:45;;;;;;;1.02;1.02;;;6.90;99.90;;;;;;5050804;28;20560;-75
2021/11/04 03:37:14;;;;;;;1.00;0.90;;;6.90;99.90;;;;;;5050613;28;20224;-76
2021/11/04 03:39:42;;;;;;;2.03;1.92;;;6.90;99.90;;;;;;5050155;28;20211;-76
2021/11/04 03:42:10;;;;;;;6.10;1.70;;;7.00;99.90;;;;;;5050609;28;20207;-76
2021/11/04 03:44:38;;;;;;;0.50;0.40;;;6.90;99.90;;;;;;5050069;28;20219;-76
2021/11/04 03:47:05;;;;;;;0.90;0.90;;;6.90;99.90;;;;;;5050250;28;20223;-76
2021/11/04 03:49:33;;;;;;;0.50;0.40;;;6.90;99.90;;;;;;5050373;28;20203;-76
2021/11/04 03:52:01;;;;;;;0.50;0.40;;;6.80;99.90;;;;;;5049800;28;20217;-76
2021/11/04 03:54:29;;;;;;;0.50;0.40;;;6.80;99.90;;;;;;5050439;28;20689;-76
2021/11/04 03:56:57;;;;;;;0.50;0.40;;;6.90;99.90;;;;;;5050336;28;20250;-76
2021/11/04 03:59:24;;;;;;;2.47;2.38;;;6.90;99.90;;;;;;5059310;28;20205;-72
2021/11/04 04:01:51;;;;;;;0.50;0.40;;;7.00;99.90;;;;;;5056203;28;20653;-76
2021/11/04 04:04:19;;;;;;;0.60;0.60;;;7.00;99.90;;;;;;5054169;28;20205;-76
2021/11/04 04:06:51;;;;;;;3.28;2.17;;;7.00;99.90;;;;;;5054150;28;20703;-76
2021/11/04 04:09:20;;;;;;;2.05;1.95;;;7.00;99.90;;;;;;5053958;28;20179;-77
2021/11/04 04:11:47;;;;;;;0.60;0.60;;;7.00;99.90;;;;;;5053898;28;20219;-76
2021/11/04 04:14:14;;;;;;;0.60;0.45;;;7.00;99.90;;;;;;5053948;28;20195;-77
2021/11/04 04:16:41;;;;;;;0.93;0.93;;;7.10;99.90;;;;;;5054101;28;20215;-77
2021/11/04 04:19:09;;;;;;;1.23;1.13;;;7.10;99.90;;;;;;5054148;28;20204;-76
2021/11/04 04:21:36;;;;;;;0.70;0.70;;;7.10;99.90;;;;;;5053670;28;20203;-75
2021/11/04 04:24:03;;;;;;;0.50;0.40;;;7.10;99.90;;;;;;5058734;28;20202;-76
2021/11/04 04:26:31;;;;;;;2.08;1.98;;;7.00;99.90;;;;;;5053525;28;20691;-76
2021/11/04 04:28:58;;;;;;;0.50;0.40;;;7.00;99.90;;;;;;5053461;28;20222;-76
2021/11/04 04:31:25;;;;;;;0.50;0.40;;;6.90;99.90;;;;;;5053130;28;20560;-76
2021/11/04 04:33:52;;;;;;;0.50;0.40;;;6.90;99.90;;;;;;5053091;28;20196;-76
2021/11/04 04:36:18;;;;;;;0.50;0.40;;;6.90;99.90;;;;;;5053199;28;20215;-76
2021/11/04 04:38:45;;;;;;;0.50;0.40;;;6.90;99.90;;;;;;5060543;28;20197;-77
2021/11/04 04:41:12;;;;;;;1.38;1.35;;;7.00;99.90;;;;;;5052320;28;20717;-77
2021/11/04 04:43:40;;;;;;;0.50;0.40;;;7.00;99.90;;;;;;5053046;28;20213;-76
2021/11/04 04:46:07;;;;;;;0.50;0.40;;;7.00;99.90;;;;;;5053182;28;20223;-76
2021/11/04 04:48:33;;;;;;;3.03;2.78;;;7.00;99.90;;;;;;5053328;28;20377;-76
2021/11/04 04:51:00;;;;;;;0.50;0.40;;;7.10;99.90;;;;;;5053121;28;20193;-76
2021/11/04 04:53:27;;;;;;;0.50;0.40;;;7.00;99.90;;;;;;5052850;28;20216;-76
2021/11/04 04:55:53;;;;;;;0.50;0.40;;;7.00;99.90;;;;;;5053165;28;20231;-75
2021/11/04 04:58:20;;;;;;;0.50;0.40;;;7.00;99.90;;;;;;5055342;28;20195;-75
2021/11/04 05:00:48;;;;;;;1.25;1.10;;;6.90;99.90;;;;;;5061085;28;20187;-77
2021/11/04 05:03:15;;;;;;;0.50;0.40;;;6.90;99.90;;;;;;5052781;28;20195;-74
2021/11/04 05:05:42;;;;;;;0.50;0.50;;;6.80;99.90;;;;;;5052513;28;20592;-76
2021/11/04 05:08:09;;;;;;;0.50;0.40;;;6.80;99.90;;;;;;5056571;28;20671;-74
2021/11/04 05:10:36;;;;;;;0.80;0.80;;;6.80;99.90;;;;;;5057538;28;20195;-76
2021/11/04 05:13:03;;;;;;;0.50;0.40;;;6.80;99.90;;;;;;5052633;28;20211;-76
2021/11/04 05:15:29;;;;;;;0.50;0.40;;;6.90;99.90;;;;;;5051568;28;20687;-75
2021/11/04 05:17:58;;;;;;;0.50;0.40;;;6.80;99.90;;;;;;5052572;28;20199;-76
2021/11/04 05:20:25;;;;;;;0.50;0.40;;;6.80;99.90;;;;;;5051906;28;20195;-75
2021/11/04 05:22:52;;;;;;;0.50;0.40;;;6.80;99.90;;;;;;5052399;28;20195;-76
2021/11/04 05:25:19;;;;;;;0.50;0.40;;;6.80;99.90;;;;;;5052668;28;20560;-74
2021/11/04 05:27:48;;;;;;;1.10;1.08;;;6.80;99.90;;;;;;5056978;28;20279;-76
2021/11/04 05:30:16;;;;;;;9.68;1.95;;;6.90;99.90;;;;;;5064147;28;20245;-76
2021/11/04 05:32:44;;;;;;;0.50;0.50;;;6.90;99.90;;;;;;5072792;28;20565;-76
2021/11/04 05:35:13;;;;;;;2.97;1.98;;;6.80;99.90;;;;;;5072479;28;20194;-76
2021/11/04 05:37:40;;;;;;;0.50;0.40;;;6.90;99.90;;;;;;5072501;28;20622;-76
2021/11/04 05:40:08;;;;;;;1.52;1.48;;;6.80;99.90;;;;;;5071361;28;20200;-76
2021/11/04 05:42:35;;;;;;;0.50;0.40;;;6.80;99.90;;;;;;5072097;28;20193;-76
2021/11/04 05:45:03;;;;;;;0.50;0.40;;;6.80;99.90;;;;;;5072457;28;20541;-76
2021/11/04 05:47:29;;;;;;;0.50;0.40;;;6.80;99.90;;;;;;5071922;28;20230;-77
2021/11/04 05:49:56;;;;;;;0.50;0.40;;;6.80;99.90;;;;;;5072188;28;20194;-75
2021/11/04 05:52:24;;;;;;;1.40;1.30;;;6.70;99.90;;;;;;5072483;28;20220;-77
2021/11/04 05:54:53;;;;;;;0.50;0.40;;;6.80;99.90;;;;;;5073119;28;20740;-76
2021/11/04 05:57:20;;;;;;;0.50;0.40;;;6.80;99.90;;;;;;5072828;28;20260;-76
2021/11/04 05:59:47;;;;;;;0.50;0.40;;;6.80;99.90;;;;;;5063072;28;20199;-76
2021/11/04 06:02:14;;;;;;;0.50;0.40;;;6.80;99.90;;;;;;5072074;28;20186;-76
2021/11/04 06:04:45;;;;;;;0.50;0.40;;;6.70;99.90;;;;;;5073393;28;20569;-77
2021/11/04 06:07:12;;;;;;;0.50;0.40;;;6.80;99.90;;;;;;5072105;28;20603;-77
2021/11/04 06:09:40;;;;;;;0.50;0.40;;;6.80;99.90;;;;;;5072026;28;20191;-77
2021/11/04 06:12:08;;;;;;;0.50;0.40;;;6.80;99.90;;;;;;5071801;28;20194;-77
2021/11/04 06:14:35;;;;;;;0.50;0.40;;;6.70;99.90;;;;;;5072731;28;20199;-75
2021/11/04 06:17:02;;;;;;;0.50;0.40;;;6.70;99.90;;;;;;5072131;28;20215;-77
2021/11/04 06:19:29;;;;;;;0.50;0.40;;;6.80;99.90;;;;;;5072537;28;20205;-77
2021/11/04 06:21:56;;;;;;;2.90;1.52;;;6.80;99.90;;;;;;5071157;28;20190;-78
2021/11/04 06:24:22;;;;;;;0.50;0.40;;;6.70;99.90;;;;;;5072392;28;20193;-78
2021/11/04 06:26:50;;;;;;;0.50;0.40;;;6.70;99.90;;;;;;5072591;28;20214;-78
2021/11/04 06:29:17;;;;;;;2.35;2.25;;;6.80;99.90;;;;;;5070308;28;20198;-78
2021/11/04 06:31:44;;;;;;;0.50;0.40;;;6.80;99.90;;;;;;5051076;28;20221;-78
2021/11/04 06:34:11;;;;;;;0.50;0.40;;;6.90;99.90;;;;;;5051501;28;20247;-77
2021/11/04 06:36:38;;;;;;;1.98;1.52;;;6.90;99.90;;;;;;5051487;28;20222;-76
2021/11/04 06:39:05;;;;;;;0.52;0.50;;;6.90;99.90;;;;;;5050719;28;20678;-78
2021/11/04 06:41:32;;;;;;;1.08;1.08;;;6.90;99.90;;;;;;5051051;28;20735;-78
2021/11/04 06:44:00;;;;;;;1.35;1.25;;;6.80;99.90;;;;;;5051701;28;20559;-77
2021/11/04 06:46:29;;;;;;;0.50;0.40;;;6.90;99.90;;;;;;5051412;28;20230;-77
2021/11/04 06:49:00;;;;;;;0.75;0.75;;;6.90;99.90;;;;;;5051032;28;20199;-76
2021/11/04 06:51:30;;;;;;;4.10;2.88;;;6.90;99.90;;;;;;5050688;28;20207;-77
2021/11/04 06:53:59;;;;;;;7.28;6.80;;;6.90;99.90;;;;;;5051504;28;20222;-77
2021/11/04 06:56:28;;;;;;;1.73;1.63;;;6.90;99.90;;;;;;5050698;28;20241;-77
2021/11/04 06:58:56;;;;;;;0.73;0.60;;;6.90;99.90;;;;;;5062602;28;20200;-78
2021/11/04 07:01:26;;;;;;;0.50;0.38;;;6.90;99.90;;;;;;5070348;28;20221;-77
2021/11/04 07:03:58;;;;;;;6.72;2.35;;;6.90;99.90;;;;;;5070420;28;20267;-77
2021/11/04 07:06:27;;;;;;;0.50;0.40;;;6.80;99.90;;;;;;5071220;28;20219;-77
2021/11/04 07:08:56;;;;;;;11.25;2.03;;;6.80;99.90;;;;;;5062451;28;20564;-75
2021/11/04 07:11:24;;;;;;;1.27;1.17;;;6.80;99.90;;;;;;5056973;28;20663;-77
2021/11/04 07:13:52;;;;;;;1.45;1.35;;;6.80;99.90;;;;;;5053587;28;20215;-77
2021/11/04 07:16:22;;;;;;;1.80;1.70;;;6.80;99.90;;;;;;5051071;28;20592;-77
2021/11/04 07:18:51;;;;;;;0.52;0.52;;;6.80;99.90;;;;;;5051327;28;20214;-77
2021/11/04 07:21:22;;;;;;;2.33;2.20;;;6.80;99.90;;;;;;5050615;28;20191;-77
2021/11/04 07:23:55;;;;;;;0.60;0.50;;;6.80;99.90;;;;;;5051194;28;20205;-77
2021/11/04 07:26:26;;;;;;;0.63;0.63;;;6.90;99.90;;;;;;5050098;28;20215;-73
2021/11/04 07:28:55;;;;;;;0.50;0.40;;;6.90;99.90;;;;;;5050574;28;20195;-78
2021/11/04 07:31:23;;;;;;;0.50;0.47;;;6.80;99.90;;;;;;5064799;28;20203;-77
2021/11/04 07:33:51;;;;;;;4.53;4.07;;;6.80;99.90;;;;;;5052827;28;20310;-77
2021/11/04 07:36:20;;;;;;;1.40;0.88;;;6.90;99.90;;;;;;5054854;28;20216;-77
2021/11/04 07:38:48;;;;;;;5.00;1.25;;;6.90;99.90;;;;;;5054922;28;20197;-77
2021/11/04 07:41:16;;;;;;;0.50;0.40;;;6.80;99.90;;;;;;5054053;28;20234;-76
2021/11/04 07:43:43;;;;;;;4.93;4.57;;;6.80;99.90;;;;;;5065433;28;20206;-77
2021/11/04 07:46:10;;;;;;;0.50;0.40;;;6.80;99.90;;;;;;5073709;28;20220;-77
2021/11/04 07:48:36;;;;;;;0.50;0.50;;;6.80;99.90;;;;;;5074123;28;20201;-77
2021/11/04 07:51:05;;;;;;;0.50;0.40;;;6.80;99.90;;;;;;5074235;28;20198;-77
2021/11/04 07:53:31;;;;;;;4.32;1.88;;;6.90;99.90;;;;;;5073783;28;20222;-75
2021/11/04 07:55:58;;;;;;;3.40;3.30;;;6.90;99.90;;;;;;5073819;28;20226;-77
2021/11/04 07:58:25;;;;;;;0.50;0.40;;;6.90;99.90;;;;;;5073919;28;20572;-73
2021/11/04 08:00:52;;;;;;;13.98;4.10;;;6.90;99.90;;;;;;5074082;28;20211;-79
2021/11/04 08:03:18;;;;;;;0.50;0.40;;;6.90;99.90;;;;;;5074177;28;20198;-77
2021/11/04 08:05:45;;;;;;;1.35;1.25;;;6.90;99.90;;;;;;5074405;28;20219;-77
2021/11/04 08:08:13;;;;;;;0.50;0.50;;;7.00;99.90;;;;;;5070657;28;20199;-77
2021/11/04 08:10:40;;;;;;;0.50;0.40;;;7.10;99.90;;;;;;5062183;28;20501;-77
2021/11/04 08:13:08;;;;;;;0.50;0.40;;;7.20;99.90;;;;;;5054263;28;20214;-77
2021/11/04 08:15:36;;;;;;;0.50;0.40;;;7.20;99.90;;;;;;5053874;28;20290;-77
2021/11/04 08:18:03;;;;;;;0.50;0.40;;;7.30;99.90;;;;;;5054348;28;20195;-77
2021/11/04 08:20:30;;;;;;;0.50;0.40;;;7.40;99.90;;;;;;5053764;28;20265;-76
2021/11/04 08:22:57;;;;;;;0.50;0.40;;;7.50;99.90;;;;;;5053743;28;20201;-78
2021/11/04 08:25:26;;;;;;;5.88;3.38;;;7.60;99.90;;;;;;5053983;28;20192;-77
2021/11/04 08:27:53;;;;;;;0.50;0.40;;;7.60;99.90;;;;;;5053567;28;20688;-77
2021/11/04 08:30:21;;;;;;;0.50;0.40;;;7.70;99.90;;;;;;5063275;28;20206;-78
2021/11/04 08:32:48;;;;;;;0.50;0.40;;;7.80;99.90;;;;;;5056322;28;20193;-77
2021/11/04 08:35:15;;;;;;;1.05;1.05;;;7.90;99.90;;;;;;5053523;28;20246;-77
2021/11/04 08:37:42;;;;;;;4.00;3.65;;;8.00;99.90;;;;;;5053209;28;20215;-78
2021/11/04 08:40:10;;;;;;;2.15;1.95;;;8.00;99.90;;;;;;5052527;28;20223;-74
2021/11/04 08:42:39;;;;;;;1.25;1.25;;;7.90;99.90;;;;;;5053153;28;20664;-77
2021/11/04 08:45:08;;;;;;;0.50;0.50;;;7.90;99.90;;;;;;5052847;28;20193;-77
2021/11/04 08:47:35;;;;;;;7.60;7.10;;;7.90;99.90;;;;;;5052772;28;20232;-77
2021/11/04 08:50:03;;;;;;;1.15;1.05;;;7.90;99.90;;;;;;5053611;28;20582;-78
2021/11/04 08:52:30;;;;;;;6.10;5.78;;;7.90;99.90;;;;;;5053057;28;20204;-76
2021/11/04 08:54:57;;;;;;;0.50;0.50;;;7.90;99.90;;;;;;5053403;28;20227;-77
2021/11/04 08:57:24;;;;;;;1.88;1.77;;;7.80;99.90;;;;;;5053112;28;20604;-73
2021/11/04 08:59:52;;;;;;;0.60;0.40;;;7.80;99.90;;;;;;5053380;28;20203;-78
2021/11/04 09:02:21;;;;;;;0.50;0.40;;;7.90;99.90;;;;;;5052557;28;20207;-77
2021/11/04 09:04:49;;;;;;;0.50;0.40;;;8.00;99.90;;;;;;5053340;28;20282;-77
2021/11/04 09:07:18;;;;;;;0.50;0.40;;;8.00;99.90;;;;;;5052681;28;20215;-78
2021/11/04 09:09:45;;;;;;;1.70;1.60;;;8.10;99.90;;;;;;5053120;28;20203;-78
2021/11/04 09:12:13;;;;;;;0.50;0.40;;;8.10;99.90;;;;;;5052128;28;20609;-77
2021/11/04 09:14:40;;;;;;;3.45;2.05;;;8.10;99.90;;;;;;5052540;28;20254;-77
2021/11/04 09:17:08;;;;;;;7.75;2.05;;;8.10;99.90;;;;;;5052451;28;20251;-77
2021/11/04 09:19:35;;;;;;;4.85;1.85;;;8.20;99.90;;;;;;5052343;28;20221;-77
2021/11/04 09:22:03;;;;;;;1.70;1.60;;;8.00;99.90;;;;;;5052811;28;20204;-75
2021/11/04 09:24:30;;;;;;;5.13;4.82;;;7.90;99.90;;;;;;5051331;28;20205;-77
2021/11/04 09:26:58;;;;;;;0.50;0.40;;;8.00;99.90;;;;;;5053113;28;20219;-78
2021/11/04 09:29:25;;;;;;;0.98;0.95;;;8.00;99.90;;;;;;5056136;28;20217;-77
2021/11/04 09:31:54;;;;;;;0.70;0.70;;;8.00;99.90;;;;;;5063344;28;20283;-78
2021/11/04 09:34:22;;;;;;;2.55;2.25;;;8.10;99.90;;;;;;5052216;28;20224;-77
2021/11/04 09:36:49;;;;;;;0.55;0.55;;;8.20;99.90;;;;;;5052014;28;20569;-77
2021/11/04 09:39:15;;;;;;;0.50;0.40;;;8.20;99.90;;;;;;5059789;28;20187;-77
2021/11/04 09:41:43;;;;;;;0.50;0.40;;;8.20;99.90;;;;;;5067858;28;20567;-78
2021/11/04 09:44:11;;;;;;;3.50;3.20;;;8.20;99.90;;;;;;5072325;28;20199;-77
2021/11/04 09:46:39;;;;;;;4.00;2.67;;;8.30;99.90;;;;;;5072000;28;20334;-77
2021/11/04 09:49:06;;;;;;;0.85;0.85;;;8.40;99.90;;;;;;5071862;28;20287;-77
2021/11/04 09:51:34;;;;;;;4.82;2.78;;;8.40;99.90;;;;;;5071751;28;20204;-77
2021/11/04 09:54:02;;;;;;;24.90;7.28;;;8.30;99.90;;;;;;5072709;28;20285;-77
2021/11/04 09:56:29;;;;;;;1.75;1.65;;;8.10;99.90;;;;;;5070153;28;20274;-77
2021/11/04 09:58:56;;;;;;;12.75;9.55;;;8.00;99.90;;;;;;5072046;28;20578;-77
2021/11/04 10:01:26;;;;;;;0.75;0.75;;;7.90;99.90;;;;;;5071373;28;20198;-78
2021/11/04 10:03:53;;;;;;;3.70;1.60;;;7.90;99.90;;;;;;5071002;28;20195;-77
2021/11/04 10:06:23;;;;;;;0.50;0.40;;;7.90;99.90;;;;;;5071454;28;20233;-77
2021/11/04 10:08:53;;;;;;;1.83;1.73;;;7.90;99.90;;;;;;5071271;28;20203;-77
2021/11/04 10:11:21;;;;;;;3.45;3.25;;;8.00;99.90;;;;;;5071454;28;20536;-77
2021/11/04 10:13:50;;;;;;;1.35;1.25;;;8.00;99.90;;;;;;5070776;28;20223;-77
2021/11/04 10:16:18;;;;;;;2.97;2.88;;;8.00;99.90;;;;;;5070935;28;20210;-77
2021/11/04 10:18:48;;;;;;;4.18;3.88;;;8.00;99.90;;;;;;5071186;28;20217;-78
2021/11/04 10:21:22;;;;;;;0.85;0.85;;;7.90;99.90;;;;;;5071113;28;20253;-77
2021/11/04 10:23:49;;;;;;;13.68;6.93;;;7.90;99.90;;;;;;5071012;28;20190;-77
2021/11/04 10:26:18;;;;;;;0.60;0.60;;;7.90;99.90;;;;;;5071346;28;20226;-75
2021/11/04 10:28:46;;;;;;;3.97;3.28;;;7.90;99.90;;;;;;5071839;28;20205;-77
2021/11/04 10:31:15;;;;;;;3.22;3.03;;;8.00;99.90;;;;;;5058332;28;20199;-76
2021/11/04 10:33:43;;;;;;;0.88;0.88;;;8.00;99.90;;;;;;5051192;28;20216;-77
2021/11/04 10:36:12;;;;;;;0.50;0.40;;;8.00;99.90;;;;;;5050822;28;20218;-77
2021/11/04 10:38:44;;;;;;;0.50;0.40;;;8.00;99.90;;;;;;5051150;28;20211;-77
2021/11/04 10:41:22;;;;;;;1.05;1.05;;;8.10;99.90;;;;;;5050041;28;20191;-78
2021/11/04 10:43:50;;;;;;;0.50;0.43;;;8.20;99.90;;;;;;5051076;28;20199;-77
2021/11/04 10:46:17;;;;;;;1.35;1.25;;;8.40;99.90;;;;;;5051147;28;20225;-78
2021/11/04 10:48:45;;;;;;;0.50;0.40;;;8.50;99.90;;;;;;5051155;28;20906;-78
2021/11/04 10:51:17;;;;;;;0.50;0.40;;;8.50;99.90;;;;;;5050711;28;20201;-77
2021/11/04 10:53:44;;;;;;;1.33;1.30;;;8.50;99.90;;;;;;5050754;28;20583;-77
2021/11/04 10:56:20;;;;;;;0.50;0.40;;;8.50;99.90;;;;;;5049969;28;20227;-77
2021/11/04 10:58:59;;;;;;;6.47;5.97;;;8.50;99.90;;;;;;5051049;28;20549;-78
2021/11/04 11:01:40;;;;;;;1.35;1.25;;;8.60;99.90;;;;;;5050911;28;20204;-77
2021/11/04 11:04:10;;;;;;;3.35;3.15;;;8.60;99.90;;;;;;5050901;28;20176;-77
2021/11/04 11:06:39;;;;;;;0.50;0.40;;;8.60;99.90;;;;;;5050730;28;20226;-78
2021/11/04 11:09:08;;;;;;;0.73;0.73;;;8.70;99.90;;;;;;5053582;28;20195;-78
2021/11/04 11:11:37;;;;;;;0.50;0.40;;;8.80;99.90;;;;;;5054838;28;20191;-77
2021/11/04 11:14:06;;;;;;;0.60;0.60;;;8.90;99.90;;;;;;5054642;28;20222;-77
2021/11/04 11:16:42;;;;;;;0.60;0.60;;;8.90;99.90;;;;;;5054739;28;20221;-77
2021/11/04 11:19:10;;;;;;;0.50;0.40;;;9.00;99.90;;;;;;5055244;28;20199;-77
2021/11/04 11:21:42;;;;;;;0.50;0.40;;;9.00;99.90;;;;;;5054193;28;20196;-76
2021/11/04 11:24:09;;;;;;;1.95;1.85;;;9.00;99.90;;;;;;5054782;28;20732;-77
2021/11/04 11:26:37;;;;;;;5.47;5.00;;;8.90;99.90;;;;;;5054641;28;20585;-77
2021/11/04 11:29:04;;;;;;;0.50;0.40;;;8.90;99.90;;;;;;5055194;28;20249;-77
2021/11/04 11:31:32;;;;;;;2.25;2.05;;;8.90;99.90;;;;;;5067996;28;20188;-75
2021/11/04 11:34:18;;;;;;;11.38;3.28;;;9.00;99.90;;;;;;5054044;28;20221;-77
2021/11/04 11:37:12;;;;;;;1.90;1.75;;;9.00;99.90;;;;;;5041111;28;20216;-77
2021/11/04 11:39:41;;;;;;;14.45;1.88;;;8.90;99.90;;;;;;5054396;28;20667;-78
2021/11/04 11:42:10;;;;;;;1.55;1.45;;;8.90;99.90;;;;;;5054184;28;20199;-76
2021/11/04 11:44:40;;;;;;;5.70;2.53;;;8.90;99.90;;;;;;5054321;28;20208;-74
2021/11/04 11:47:09;;;;;;;9.70;5.45;;;8.90;99.90;;;;;;5054084;28;20241;-78
2021/11/04 11:49:38;;;;;;;11.40;7.43;;;8.90;99.90;;;;;;5054689;28;20205;-78
2021/11/04 11:52:07;;;;;;;0.50;0.40;;;8.80;99.90;;;;;;5053817;28;20197;-75
2021/11/04 11:55:04;;;;;;;0.50;0.40;;;8.70;99.90;;;;;;5054116;28;20214;-77
2021/11/04 11:57:31;;;;;;;0.50;0.40;;;8.80;99.90;;;;;;5053812;28;20220;-78
2021/11/04 11:59:58;;;;;;;7.85;7.07;;;8.90;99.90;;;;;;5053716;28;20197;-77
2021/11/04 12:02:42;;;;;;;0.95;0.95;;;9.00;99.90;;;;;;5053061;28;20204;-78
2021/11/04 12:05:40;;;;;;;15.35;2.45;;;9.00;99.90;;;;;;5053895;28;20679;-78
2021/11/04 12:08:35;;;;;;;5.03;2.05;;;9.10;99.90;;;;;;5054394;28;20202;-78
2021/11/04 12:11:07;;;;;;;0.50;0.40;;;9.10;99.90;;;;;;5053503;28;20199;-78
2021/11/04 12:13:40;;;;;;;0.50;0.40;;;9.10;99.90;;;;;;5054115;28;20188;-77
2021/11/04 12:16:12;;;;;;;0.52;0.40;;;9.20;99.90;;;;;;5054172;28;20605;-78
2021/11/04 12:18:48;;;;;;;2.00;1.27;;;9.30;99.90;;;;;;5053521;28;20197;-78
2021/11/04 12:21:20;;;;;;;1.90;1.80;;;9.40;99.90;;;;;;5051966;28;20194;-78
2021/11/04 12:23:47;;;;;;;0.60;0.60;;;9.50;99.90;;;;;;5053561;28;20685;-77
2021/11/04 12:26:14;;;;;;;1.40;1.08;;;9.50;99.90;;;;;;5053418;28;20709;-78
2021/11/04 12:28:43;;;;;;;1.60;1.50;;;9.40;99.90;;;;;;5053470;28;20251;-77
2021/11/04 12:31:14;;;;;;;0.50;0.40;;;9.50;99.90;;;;;;5069721;28;20199;-78
2021/11/04 12:33:42;;;;;;;3.25;1.42;;;9.50;99.90;;;;;;5065598;28;20193;-77
2021/11/04 12:36:08;;;;;;;0.57;0.55;;;9.60;99.90;;;;;;5072488;28;20220;-78
2021/11/04 12:38:41;;;;;;;0.50;0.40;;;9.60;99.90;;;;;;5064644;28;20184;-77
2021/11/04 12:41:09;;;;;;;1.38;1.38;;;9.60;99.90;;;;;;5053087;28;20541;-78
2021/11/04 12:43:37;;;;;;;0.85;0.82;;;9.70;99.90;;;;;;5052658;28;20200;-76
2021/11/04 12:46:14;;;;;;;1.83;1.75;;;9.60;99.90;;;;;;5052789;28;20211;-77
2021/11/04 12:48:50;;;;;;;0.50;0.40;;;9.60;99.90;;;;;;5052752;28;20205;-77
2021/11/04 12:51:17;;;;;;;0.50;0.40;;;9.60;99.90;;;;;;5052572;28;20207;-78
2021/11/04 12:53:54;;;;;;;1.40;1.30;;;9.60;99.90;;;;;;5053160;28;20192;-78
2021/11/04 12:56:21;;;;;;;4.65;1.95;;;9.70;99.90;;;;;;5052202;28;20227;-78
2021/11/04 12:58:52;;;;;;;1.27;0.52;;;9.80;99.90;;;;;;5053029;28;20205;-78
2021/11/04 13:01:20;;;;;;;0.60;0.60;;;10.00;99.90;;;;;;5052844;28;20707;-78
2021/11/04 13:03:48;;;;;;;3.80;2.90;;;10.10;99.90;;;;;;5127914;22;20262;-81
2021/11/04 13:06:14;;;;;;;3.45;2.25;;;10.20;99.90;;;;;;5083601;28;20190;-84